createdAt,value
2023-05-03T00:00:20.810Z,1027.02
2023-05-03T00:00:52.518Z,1027.02
2023-05-03T00:01:23.751Z,1027.12
2023-05-03T00:01:56.612Z,1026.92
2023-05-03T00:02:27.691Z,1026.92
2023-05-03T00:03:00.607Z,1027.23
2023-05-03T00:03:31.818Z,1027.23
2023-05-03T00:04:04.709Z,1027.02
2023-05-03T00:04:35.659Z,1027.02
2023-05-03T00:05:08.834Z,1027.33
2023-05-03T00:05:39.796Z,1027.33
2023-05-03T00:06:12.347Z,1027.12
2023-05-03T00:06:43.670Z,1027.12
2023-05-03T00:07:16.582Z,1026.92
2023-05-03T00:07:47.766Z,1026.92
2023-05-03T00:08:20.493Z,1027.12
2023-05-03T00:08:51.711Z,1027.12
2023-05-03T00:09:24.461Z,1027.23
2023-05-03T00:09:55.643Z,1027.12
2023-05-03T00:10:12.165Z,1027.12
2023-05-03T00:10:43.651Z,1027.12
2023-05-03T00:11:15.674Z,1027.12
2023-05-03T00:11:48.570Z,1027.12
2023-05-03T00:12:19.833Z,1027.12
2023-05-03T00:12:52.715Z,1027.12
2023-05-03T00:13:23.745Z,1027.02
2023-05-03T00:13:56.515Z,1027.12
2023-05-03T00:14:27.601Z,1027.12
2023-05-03T00:15:02.159Z,1027.02
2023-05-03T00:15:31.966Z,1027.02
2023-05-03T00:16:04.874Z,1026.92
2023-05-03T00:16:35.737Z,1026.92
2023-05-03T00:17:08.643Z,1027.02
2023-05-03T00:17:39.771Z,1027.02
2023-05-03T00:18:12.407Z,1027.12
2023-05-03T00:18:43.806Z,1027.12
2023-05-03T00:19:30.452Z,1026.92
2023-05-03T00:19:47.899Z,1026.92
2023-05-03T00:20:20.786Z,1027.12
2023-05-03T00:20:51.717Z,1027.12
2023-05-03T00:21:24.626Z,1026.82
2023-05-03T00:21:55.683Z,1027.02
2023-05-03T00:22:11.837Z,1027.02
2023-05-03T00:22:43.670Z,1027.02
2023-05-03T00:23:15.704Z,1027.02
2023-05-03T00:23:48.469Z,1027.02
2023-05-03T00:24:19.799Z,1027.12
2023-05-03T00:24:52.383Z,1027.12
2023-05-03T00:25:24.029Z,1027.12
2023-05-03T00:25:56.570Z,1027.02
2023-05-03T00:26:27.762Z,1027.02
2023-05-03T00:27:00.549Z,1027.02
2023-05-03T00:27:31.834Z,1027.02
2023-05-03T00:28:04.517Z,1027.02
2023-05-03T00:28:35.671Z,1027.02
2023-05-03T00:29:08.475Z,1027.12
2023-05-03T00:29:39.831Z,1027.12
2023-05-03T00:30:13.748Z,1027.02
2023-05-03T00:30:43.932Z,1027.02
2023-05-03T00:31:16.659Z,1027.12
2023-05-03T00:31:47.733Z,1027.12
2023-05-03T00:32:20.655Z,1027.12
2023-05-03T00:32:51.836Z,1027.12
2023-05-03T00:33:24.424Z,1026.92
2023-05-03T00:33:55.731Z,1026.92
2023-05-03T00:34:28.421Z,1026.92
2023-05-03T00:34:59.684Z,1026.92
2023-05-03T00:35:32.808Z,1026.92
2023-05-03T00:36:03.750Z,1026.82
2023-05-03T00:36:37.219Z,1026.82
2023-05-03T00:37:07.769Z,1026.92
2023-05-03T00:37:40.562Z,1026.92
2023-05-03T00:38:11.819Z,1027.02
2023-05-03T00:38:44.478Z,1027.02
2023-05-03T00:39:15.740Z,1026.92
2023-05-03T00:39:48.291Z,1026.92
2023-05-03T00:40:20.089Z,1026.92
2023-05-03T00:40:52.427Z,1026.92
2023-05-03T00:41:23.806Z,1027.12
2023-05-03T00:41:56.471Z,1027.12
2023-05-03T00:42:27.632Z,1027.12
2023-05-03T00:43:01.557Z,1026.82
2023-05-03T00:43:31.813Z,1026.82
2023-05-03T00:44:04.405Z,1026.82
2023-05-03T00:44:35.828Z,1026.82
2023-05-03T00:45:10.078Z,1026.72
2023-05-03T00:45:39.910Z,1026.72
2023-05-03T00:46:17.402Z,1027.02
2023-05-03T00:46:43.852Z,1027.02
2023-05-03T00:47:16.763Z,1026.92
2023-05-03T00:47:47.652Z,1026.92
2023-05-03T00:48:20.459Z,1027.02
2023-05-03T00:48:51.868Z,1027.02
2023-05-03T00:49:24.482Z,1027.02
2023-05-03T00:49:55.672Z,1026.82
2023-05-03T00:50:12.262Z,1026.82
2023-05-03T00:50:43.744Z,1026.82
2023-05-03T00:51:15.815Z,1027.12
2023-05-03T00:51:47.909Z,1027.12
2023-05-03T00:52:19.826Z,1026.62
2023-05-03T00:52:52.872Z,1026.62
2023-05-03T00:53:23.777Z,1026.82
2023-05-03T00:53:56.738Z,1026.92
2023-05-03T00:54:27.641Z,1026.92
2023-05-03T00:55:01.027Z,1026.82
2023-05-03T00:55:31.837Z,1026.82
2023-05-03T00:56:04.321Z,1026.92
2023-05-03T00:56:44.305Z,1026.92
2023-05-03T00:57:08.621Z,1026.82
2023-05-03T00:57:39.904Z,1026.82
2023-05-03T00:58:12.514Z,1026.82
2023-05-03T00:58:43.749Z,1026.82
2023-05-03T00:59:16.651Z,1026.82
2023-05-03T00:59:47.689Z,1026.82
2023-05-03T01:00:21.506Z,1026.72
2023-05-03T01:00:51.704Z,1026.72
2023-05-03T01:01:24.262Z,1026.82
2023-05-03T01:01:55.760Z,1026.82
2023-05-03T01:02:28.857Z,1026.82
2023-05-03T01:02:59.953Z,1026.92
2023-05-03T01:03:32.620Z,1026.92
2023-05-03T01:04:03.762Z,1026.82
2023-05-03T01:04:36.684Z,1026.82
2023-05-03T01:05:07.897Z,1027.02
2023-05-03T01:05:40.654Z,1027.02
2023-05-03T01:06:11.790Z,1026.92
2023-05-03T01:06:44.525Z,1026.92
2023-05-03T01:07:15.715Z,1026.82
2023-05-03T01:07:48.619Z,1026.82
2023-05-03T01:08:19.866Z,1027.02
2023-05-03T01:08:52.264Z,1027.02
2023-05-03T01:09:23.768Z,1026.92
2023-05-03T01:09:56.419Z,1026.82
2023-05-03T01:10:27.936Z,1026.82
2023-05-03T01:11:00.439Z,1026.92
2023-05-03T01:11:31.752Z,1026.92
2023-05-03T01:12:04.643Z,1026.92
2023-05-03T01:12:35.738Z,1026.92
2023-05-03T01:13:08.625Z,1026.62
2023-05-03T01:13:39.789Z,1026.62
2023-05-03T01:14:12.485Z,1026.72
2023-05-03T01:14:43.680Z,1026.72
2023-05-03T01:15:17.741Z,1027.02
2023-05-03T01:15:47.949Z,1027.02
2023-05-03T01:16:21.478Z,1026.82
2023-05-03T01:16:51.755Z,1026.82
2023-05-03T01:17:24.602Z,1026.82
2023-05-03T01:17:55.707Z,1026.72
2023-05-03T01:18:28.516Z,1026.72
2023-05-03T01:18:59.788Z,1026.82
2023-05-03T01:19:32.677Z,1026.82
2023-05-03T01:20:04.328Z,1026.82
2023-05-03T01:20:36.622Z,1026.82
2023-05-03T01:21:07.768Z,1026.82
2023-05-03T01:21:40.420Z,1026.82
2023-05-03T01:22:11.771Z,1026.82
2023-05-03T01:22:44.568Z,1026.82
2023-05-03T01:23:15.849Z,1026.82
2023-05-03T01:23:48.532Z,1026.82
2023-05-03T01:24:19.743Z,1026.72
2023-05-03T01:24:52.532Z,1026.72
2023-05-03T01:25:23.913Z,1026.72
2023-05-03T01:25:56.450Z,1026.82
2023-05-03T01:26:27.863Z,1026.82
2023-05-03T01:27:00.504Z,1026.62
2023-05-03T01:27:31.609Z,1026.62
2023-05-03T01:28:04.660Z,1026.92
2023-05-03T01:28:35.859Z,1026.92
2023-05-03T01:29:08.546Z,1026.82
2023-05-03T01:29:39.728Z,1026.82
2023-05-03T01:30:13.886Z,1026.82
2023-05-03T01:30:43.829Z,1026.82
2023-05-03T01:31:16.634Z,1026.72
2023-05-03T01:31:47.870Z,1026.72
2023-05-03T01:32:20.785Z,1026.72
2023-05-03T01:32:51.801Z,1026.72
2023-05-03T01:33:24.429Z,1026.62
2023-05-03T01:33:55.804Z,1026.51
2023-05-03T01:34:28.583Z,1026.51
2023-05-03T01:34:59.784Z,1026.72
2023-05-03T01:35:32.978Z,1026.72
2023-05-03T01:36:03.782Z,1026.82
2023-05-03T01:36:36.470Z,1026.82
2023-05-03T01:37:07.746Z,1026.82
2023-05-03T01:37:40.499Z,1026.82
2023-05-03T01:38:11.654Z,1026.82
2023-05-03T01:38:44.493Z,1026.82
2023-05-03T01:39:15.720Z,1026.82
2023-05-03T01:39:48.541Z,1026.82
2023-05-03T01:40:19.994Z,1026.51
2023-05-03T01:40:52.517Z,1026.51
2023-05-03T01:41:23.909Z,1026.62
2023-05-03T01:41:56.323Z,1026.62
2023-05-03T01:42:27.696Z,1026.62
2023-05-03T01:43:00.811Z,1026.82
2023-05-03T01:43:31.867Z,1026.82
2023-05-03T01:44:04.391Z,1026.72
2023-05-03T01:44:35.594Z,1026.72
2023-05-03T01:45:09.758Z,1026.62
2023-05-03T01:45:39.753Z,1026.62
2023-05-03T01:46:12.451Z,1026.82
2023-05-03T01:46:43.807Z,1026.82
2023-05-03T01:47:16.530Z,1026.72
2023-05-03T01:47:47.820Z,1026.72
2023-05-03T01:48:20.637Z,1026.72
2023-05-03T01:48:51.835Z,1026.72
2023-05-03T01:49:24.465Z,1026.72
2023-05-03T01:49:55.788Z,1026.82
2023-05-03T01:50:29.394Z,1026.82
2023-05-03T01:50:59.924Z,1026.51
2023-05-03T01:51:32.454Z,1026.51
2023-05-03T01:52:03.818Z,1026.72
2023-05-03T01:52:36.832Z,1026.72
2023-05-03T01:53:07.742Z,1026.82
2023-05-03T01:53:41.397Z,1026.82
2023-05-03T01:54:11.806Z,1026.72
2023-05-03T01:54:44.732Z,1026.72
2023-05-03T01:55:16.078Z,1026.82
2023-05-03T01:55:48.585Z,1026.82
2023-05-03T01:56:19.811Z,1026.92
2023-05-03T01:56:52.895Z,1026.92
2023-05-03T01:57:23.759Z,1026.82
2023-05-03T01:57:56.715Z,1026.62
2023-05-03T01:58:27.859Z,1026.62
2023-05-03T01:59:00.415Z,1026.72
2023-05-03T01:59:31.947Z,1026.72
2023-05-03T02:00:06.427Z,1026.72
2023-05-03T02:00:35.854Z,1026.72
2023-05-03T02:01:08.601Z,1026.72
2023-05-03T02:01:39.973Z,1026.72
2023-05-03T02:02:12.490Z,1026.62
2023-05-03T02:02:43.793Z,1026.62
2023-05-03T02:03:16.722Z,1026.92
2023-05-03T02:03:47.904Z,1026.92
2023-05-03T02:04:20.455Z,1026.72
2023-05-03T02:04:51.959Z,1026.72
2023-05-03T02:05:25.553Z,1026.72
2023-05-03T02:05:55.707Z,1026.82
2023-05-03T02:06:28.614Z,1026.82
2023-05-03T02:06:59.834Z,1026.92
2023-05-03T02:07:32.847Z,1026.92
2023-05-03T02:08:03.725Z,1026.62
2023-05-03T02:08:36.850Z,1026.62
2023-05-03T02:09:07.840Z,1026.92
2023-05-03T02:09:40.490Z,1026.92
2023-05-03T02:10:12.231Z,1026.72
2023-05-03T02:10:44.662Z,1026.72
2023-05-03T02:11:15.859Z,1026.82
2023-05-03T02:11:48.403Z,1026.82
2023-05-03T02:12:19.880Z,1026.82
2023-05-03T02:12:52.524Z,1026.82
2023-05-03T02:13:23.640Z,1026.72
2023-05-03T02:13:57.499Z,1026.92
2023-05-03T02:14:27.753Z,1026.92
2023-05-03T02:15:02.080Z,1026.82
2023-05-03T02:15:32.018Z,1026.82
2023-05-03T02:16:04.546Z,1026.72
2023-05-03T02:16:35.938Z,1026.72
2023-05-03T02:17:08.797Z,1026.82
2023-05-03T02:17:39.778Z,1026.82
2023-05-03T02:18:12.489Z,1026.72
2023-05-03T02:18:43.789Z,1026.72
2023-05-03T02:19:16.546Z,1026.82
2023-05-03T02:19:47.752Z,1026.82
2023-05-03T02:20:20.879Z,1026.82
2023-05-03T02:20:51.764Z,1026.82
2023-05-03T02:21:24.584Z,1026.82
2023-05-03T02:21:55.772Z,1026.82
2023-05-03T02:22:28.674Z,1026.82
2023-05-03T02:22:59.704Z,1026.92
2023-05-03T02:23:32.661Z,1026.92
2023-05-03T02:24:03.853Z,1026.72
2023-05-03T02:24:36.561Z,1026.72
2023-05-03T02:25:08.932Z,1026.72
2023-05-03T02:25:40.647Z,1026.72
2023-05-03T02:26:11.844Z,1026.82
2023-05-03T02:26:44.488Z,1026.82
2023-05-03T02:27:15.945Z,1026.72
2023-05-03T02:27:48.590Z,1026.72
2023-05-03T02:28:19.889Z,1026.72
2023-05-03T02:28:52.482Z,1026.72
2023-05-03T02:29:23.768Z,1026.82
2023-05-03T02:29:56.644Z,1026.72
2023-05-03T02:30:28.937Z,1026.72
2023-05-03T02:31:01.622Z,1026.72
2023-05-03T02:31:31.931Z,1026.72
2023-05-03T02:32:04.637Z,1026.82
2023-05-03T02:32:35.881Z,1026.82
2023-05-03T02:33:08.755Z,1026.62
2023-05-03T02:33:39.739Z,1026.62
2023-05-03T02:34:12.587Z,1026.72
2023-05-03T02:34:43.788Z,1026.72
2023-05-03T02:35:16.801Z,1026.92
2023-05-03T02:35:47.820Z,1026.92
2023-05-03T02:36:20.584Z,1026.72
2023-05-03T02:36:51.687Z,1026.72
2023-05-03T02:37:24.681Z,1026.82
2023-05-03T02:37:55.787Z,1026.72
2023-05-03T02:38:28.494Z,1026.72
2023-05-03T02:38:59.654Z,1026.82
2023-05-03T02:39:32.672Z,1026.82
2023-05-03T02:40:04.257Z,1026.72
2023-05-03T02:40:36.420Z,1026.72
2023-05-03T02:41:07.809Z,1026.92
2023-05-03T02:41:40.645Z,1026.92
2023-05-03T02:42:11.778Z,1026.82
2023-05-03T02:42:44.452Z,1026.82
2023-05-03T02:43:15.824Z,1026.72
2023-05-03T02:43:48.691Z,1026.72
2023-05-03T02:44:19.847Z,1026.72
2023-05-03T02:44:52.364Z,1026.72
2023-05-03T02:45:24.870Z,1026.72
2023-05-03T02:45:56.976Z,1026.82
2023-05-03T02:46:27.827Z,1026.82
2023-05-03T02:47:00.723Z,1026.82
2023-05-03T02:47:31.925Z,1026.82
2023-05-03T02:48:04.851Z,1026.62
2023-05-03T02:48:35.927Z,1026.62
2023-05-03T02:49:08.689Z,1026.82
2023-05-03T02:49:39.708Z,1026.82
2023-05-03T02:50:12.736Z,1026.72
2023-05-03T02:50:43.815Z,1026.72
2023-05-03T02:51:16.619Z,1026.72
2023-05-03T02:51:47.728Z,1026.72
2023-05-03T02:52:20.700Z,1026.82
2023-05-03T02:52:51.821Z,1026.82
2023-05-03T02:53:24.588Z,1026.92
2023-05-03T02:53:55.644Z,1027.02
2023-05-03T02:54:29.377Z,1027.02
2023-05-03T02:54:59.799Z,1026.92
2023-05-03T02:55:33.804Z,1026.92
2023-05-03T02:56:03.728Z,1026.92
2023-05-03T02:56:36.444Z,1026.92
2023-05-03T02:57:07.894Z,1026.82
2023-05-03T02:57:42.398Z,1026.82
2023-05-03T02:58:11.855Z,1026.82
2023-05-03T02:58:44.742Z,1026.82
2023-05-03T02:59:15.921Z,1026.72
2023-05-03T02:59:48.579Z,1026.72
2023-05-03T03:00:21.363Z,1026.72
2023-05-03T03:00:52.892Z,1026.72
2023-05-03T03:01:23.909Z,1026.82
2023-05-03T03:01:40.051Z,1026.82
2023-05-03T03:02:11.752Z,1026.82
2023-05-03T03:02:43.944Z,1026.82
2023-05-03T03:03:15.918Z,1026.82
2023-05-03T03:03:48.102Z,1026.82
2023-05-03T03:04:19.789Z,1026.82
2023-05-03T03:04:51.778Z,1026.82
2023-05-03T03:05:24.167Z,1026.82
2023-05-03T03:05:55.725Z,1026.72
2023-05-03T03:06:12.823Z,1026.72
2023-05-03T03:06:43.865Z,1026.72
2023-05-03T03:07:16.586Z,1026.72
2023-05-03T03:07:47.878Z,1026.72
2023-05-03T03:08:20.610Z,1026.72
2023-05-03T03:08:51.766Z,1026.72
2023-05-03T03:09:24.649Z,1026.92
2023-05-03T03:09:55.870Z,1026.72
2023-05-03T03:10:28.860Z,1026.72
2023-05-03T03:10:59.761Z,1026.62
2023-05-03T03:11:32.623Z,1026.62
2023-05-03T03:12:03.919Z,1026.82
2023-05-03T03:12:36.605Z,1026.82
2023-05-03T03:13:07.798Z,1026.82
2023-05-03T03:13:40.551Z,1026.82
2023-05-03T03:14:11.731Z,1026.82
2023-05-03T03:14:44.610Z,1026.82
2023-05-03T03:15:16.661Z,1026.41
2023-05-03T03:15:48.548Z,1026.41
2023-05-03T03:16:20.088Z,1026.72
2023-05-03T03:16:52.509Z,1026.72
2023-05-03T03:17:23.978Z,1026.62
2023-05-03T03:17:56.748Z,1026.82
2023-05-03T03:18:27.816Z,1026.82
2023-05-03T03:19:00.710Z,1026.82
2023-05-03T03:19:31.958Z,1026.82
2023-05-03T03:20:04.973Z,1026.82
2023-05-03T03:20:35.801Z,1026.82
2023-05-03T03:21:08.655Z,1026.82
2023-05-03T03:21:39.755Z,1026.82
2023-05-03T03:22:12.648Z,1026.72
2023-05-03T03:22:43.906Z,1026.72
2023-05-03T03:23:16.562Z,1026.72
2023-05-03T03:23:47.789Z,1026.72
2023-05-03T03:24:20.581Z,1026.82
2023-05-03T03:24:51.896Z,1026.82
2023-05-03T03:25:24.894Z,1026.72
2023-05-03T03:25:55.904Z,1026.72
2023-05-03T03:26:28.639Z,1026.72
2023-05-03T03:26:59.727Z,1026.72
2023-05-03T03:27:33.599Z,1026.72
2023-05-03T03:28:03.849Z,1026.72
2023-05-03T03:28:36.684Z,1026.72
2023-05-03T03:29:07.755Z,1026.62
2023-05-03T03:29:40.550Z,1026.62
2023-05-03T03:30:13.079Z,1026.72
2023-05-03T03:30:44.600Z,1026.72
2023-05-03T03:31:15.847Z,1026.51
2023-05-03T03:31:48.683Z,1026.51
2023-05-03T03:32:19.715Z,1026.92
2023-05-03T03:32:52.839Z,1026.92
2023-05-03T03:33:24.744Z,1027.02
2023-05-03T03:33:56.548Z,1027.02
2023-05-03T03:34:27.780Z,1027.02
2023-05-03T03:35:00.997Z,1027.02
2023-05-03T03:35:31.956Z,1027.02
2023-05-03T03:36:04.539Z,1026.92
2023-05-03T03:36:35.884Z,1026.92
2023-05-03T03:37:08.656Z,1026.92
2023-05-03T03:37:40.008Z,1026.92
2023-05-03T03:38:12.448Z,1026.82
2023-05-03T03:38:43.778Z,1026.82
2023-05-03T03:39:16.696Z,1026.92
2023-05-03T03:39:47.779Z,1026.92
2023-05-03T03:40:20.884Z,1026.72
2023-05-03T03:40:51.824Z,1026.72
2023-05-03T03:41:24.897Z,1026.92
2023-05-03T03:41:55.729Z,1027.02
2023-05-03T03:42:28.634Z,1027.02
2023-05-03T03:42:59.847Z,1026.72
2023-05-03T03:43:32.600Z,1026.72
2023-05-03T03:44:03.745Z,1026.72
2023-05-03T03:44:36.644Z,1026.72
2023-05-03T03:45:08.787Z,1026.82
2023-05-03T03:45:40.753Z,1026.82
2023-05-03T03:46:11.935Z,1026.62
2023-05-03T03:46:44.646Z,1026.62
2023-05-03T03:47:15.945Z,1027.02
2023-05-03T03:47:50.857Z,1027.02
2023-05-03T03:48:20.018Z,1027.02
2023-05-03T03:48:52.381Z,1027.02
2023-05-03T03:49:23.824Z,1026.92
2023-05-03T03:49:56.630Z,1027.12
2023-05-03T03:50:28.056Z,1027.12
2023-05-03T03:51:00.654Z,1026.82
2023-05-03T03:51:31.900Z,1026.82
2023-05-03T03:52:04.683Z,1026.92
2023-05-03T03:52:35.744Z,1026.92
2023-05-03T03:53:08.774Z,1027.02
2023-05-03T03:53:40.156Z,1027.02
2023-05-03T03:54:12.515Z,1027.02
2023-05-03T03:54:44.007Z,1027.02
2023-05-03T03:55:17.091Z,1026.82
2023-05-03T03:55:48.144Z,1026.82
2023-05-03T03:56:20.632Z,1027.02
2023-05-03T03:56:52.222Z,1027.02
2023-05-03T03:57:24.882Z,1026.92
2023-05-03T03:57:55.962Z,1027.12
2023-05-03T03:58:28.993Z,1027.12
2023-05-03T03:59:00.187Z,1027.02
2023-05-03T03:59:33.078Z,1027.02
2023-05-03T04:00:06.054Z,1027.12
2023-05-03T04:00:37.673Z,1027.12
2023-05-03T04:01:08.222Z,1027.12
2023-05-03T04:01:40.796Z,1027.12
2023-05-03T04:02:12.102Z,1027.02
2023-05-03T04:02:46.330Z,1027.02
2023-05-03T04:03:16.284Z,1026.92
2023-05-03T04:03:49.915Z,1026.92
2023-05-03T04:04:20.134Z,1027.02
2023-05-03T04:04:52.790Z,1027.02
2023-05-03T04:05:24.381Z,1027.12
2023-05-03T04:05:56.716Z,1027.02
2023-05-03T04:06:28.193Z,1027.02
2023-05-03T04:07:00.867Z,1027.12
2023-05-03T04:07:32.136Z,1027.12
2023-05-03T04:08:04.922Z,1026.92
2023-05-03T04:08:36.156Z,1026.92
2023-05-03T04:09:08.785Z,1027.12
2023-05-03T04:09:40.121Z,1027.12
2023-05-03T04:10:13.181Z,1027.23
2023-05-03T04:10:44.059Z,1027.23
2023-05-03T04:11:16.816Z,1027.33
2023-05-03T04:11:48.196Z,1027.33
2023-05-03T04:12:20.944Z,1027.23
2023-05-03T04:12:51.958Z,1027.23
2023-05-03T04:13:24.752Z,1027.23
2023-05-03T04:13:56.124Z,1027.12
2023-05-03T04:14:28.876Z,1027.12
2023-05-03T04:15:00.046Z,1027.23
2023-05-03T04:15:34.086Z,1027.23
2023-05-03T04:16:04.897Z,1027.33
2023-05-03T04:16:36.844Z,1027.33
2023-05-03T04:17:08.178Z,1027.02
2023-05-03T04:17:41.206Z,1027.02
2023-05-03T04:18:12.040Z,1027.02
2023-05-03T04:18:45.886Z,1027.02
2023-05-03T04:19:16.044Z,1027.33
2023-05-03T04:19:48.887Z,1027.33
2023-05-03T04:20:20.360Z,1027.33
2023-05-03T04:20:53.625Z,1027.33
2023-05-03T04:21:24.202Z,1027.12
2023-05-03T04:21:56.913Z,1027.43
2023-05-03T04:22:28.071Z,1027.43
2023-05-03T04:23:01.009Z,1027.23
2023-05-03T04:23:32.294Z,1027.23
2023-05-03T04:24:04.888Z,1027.23
2023-05-03T04:24:36.141Z,1027.23
2023-05-03T04:25:10.185Z,1027.43
2023-05-03T04:25:40.174Z,1027.43
2023-05-03T04:26:23.961Z,1027.43
2023-05-03T04:26:44.222Z,1027.43
2023-05-03T04:27:17.068Z,1027.23
2023-05-03T04:27:48.139Z,1027.23
2023-05-03T04:28:22.614Z,1027.33
2023-05-03T04:28:52.011Z,1027.33
2023-05-03T04:29:24.950Z,1027.33
2023-05-03T04:29:56.039Z,1027.23
2023-05-03T04:30:30.041Z,1027.23
2023-05-03T04:31:00.279Z,1027.33
2023-05-03T04:31:32.960Z,1027.33
2023-05-03T04:32:04.141Z,1027.33
2023-05-03T04:33:08.020Z,1027.33
2023-05-03T04:33:40.941Z,1027.33
2023-05-03T04:34:12.239Z,1027.53
2023-05-03T04:34:45.506Z,1027.53
2023-05-03T04:35:16.352Z,1027.33
2023-05-03T04:35:48.960Z,1027.33
2023-05-03T04:36:20.244Z,1027.33
2023-05-03T04:36:52.874Z,1027.33
2023-05-03T04:37:24.069Z,1027.43
2023-05-03T04:37:56.856Z,1027.53
2023-05-03T04:38:27.999Z,1027.53
2023-05-03T04:39:00.984Z,1027.43
2023-05-03T04:39:32.167Z,1027.43
2023-05-03T04:40:05.434Z,1027.53
2023-05-03T04:40:35.980Z,1027.53
2023-05-03T04:41:08.907Z,1027.53
2023-05-03T04:41:40.198Z,1027.53
2023-05-03T04:42:19.859Z,1027.63
2023-05-03T04:42:44.070Z,1027.63
2023-05-03T04:43:16.141Z,1027.73
2023-05-03T04:43:48.225Z,1027.73
2023-05-03T04:44:20.114Z,1027.53
2023-05-03T04:44:53.820Z,1027.53
2023-05-03T04:45:25.152Z,1027.84
2023-05-03T04:45:57.878Z,1027.84
2023-05-03T04:46:27.984Z,1027.84
2023-05-03T04:47:01.125Z,1027.53
2023-05-03T04:47:32.321Z,1027.53
2023-05-03T04:48:04.999Z,1027.63
2023-05-03T04:48:36.059Z,1027.63
2023-05-03T04:49:08.847Z,1027.63
2023-05-03T04:49:40.262Z,1027.63
2023-05-03T04:50:13.194Z,1027.53
2023-05-03T04:50:44.134Z,1027.53
2023-05-03T04:51:17.000Z,1027.73
2023-05-03T04:51:47.979Z,1027.73
2023-05-03T04:52:21.153Z,1027.73
2023-05-03T04:52:52.057Z,1027.73
2023-05-03T04:53:24.958Z,1027.73
2023-05-03T04:53:56.047Z,1027.84
2023-05-03T04:54:29.005Z,1027.84
2023-05-03T04:55:00.182Z,1027.84
2023-05-03T04:55:33.253Z,1027.84
2023-05-03T04:56:04.062Z,1027.73
2023-05-03T04:56:37.057Z,1027.73
2023-05-03T04:57:08.042Z,1027.84
2023-05-03T04:57:41.934Z,1027.84
2023-05-03T04:58:12.151Z,1027.63
2023-05-03T04:58:44.973Z,1027.63
2023-05-03T04:59:16.084Z,1027.73
2023-05-03T04:59:51.889Z,1027.73
2023-05-03T05:00:21.131Z,1027.73
2023-05-03T05:00:52.888Z,1027.73
2023-05-03T05:01:24.102Z,1027.73
2023-05-03T05:01:56.896Z,1027.73
2023-05-03T05:02:28.117Z,1027.73
2023-05-03T05:03:01.207Z,1027.63
2023-05-03T05:03:32.243Z,1027.63
2023-05-03T05:04:04.986Z,1027.84
2023-05-03T05:04:36.083Z,1027.84
2023-05-03T05:05:09.009Z,1027.63
2023-05-03T05:05:40.165Z,1027.63
2023-05-03T05:06:12.675Z,1027.73
2023-05-03T05:06:44.068Z,1027.73
2023-05-03T05:07:16.884Z,1027.84
2023-05-03T05:07:48.106Z,1027.84
2023-05-03T05:08:20.850Z,1027.84
2023-05-03T05:08:52.079Z,1027.84
2023-05-03T05:09:24.931Z,1027.63
2023-05-03T05:09:56.150Z,1027.53
2023-05-03T05:10:29.088Z,1027.53
2023-05-03T05:11:00.082Z,1027.73
2023-05-03T05:11:32.940Z,1027.73
2023-05-03T05:12:03.976Z,1027.63
2023-05-03T05:12:36.869Z,1027.63
2023-05-03T05:13:08.130Z,1027.53
2023-05-03T05:13:41.044Z,1027.53
2023-05-03T05:14:12.029Z,1027.63
2023-05-03T05:14:44.827Z,1027.63
2023-05-03T05:15:17.083Z,1027.63
2023-05-03T05:15:49.140Z,1027.63
2023-05-03T05:16:20.135Z,1027.73
2023-05-03T05:16:52.951Z,1027.73
2023-05-03T05:17:24.222Z,1027.73
2023-05-03T05:17:56.959Z,1027.94
2023-05-03T05:18:28.179Z,1027.94
2023-05-03T05:19:01.009Z,1027.63
2023-05-03T05:19:31.886Z,1027.63
2023-05-03T05:20:05.314Z,1027.53
2023-05-03T05:20:36.179Z,1027.53
2023-05-03T05:21:08.758Z,1027.43
2023-05-03T05:21:40.072Z,1027.43
2023-05-03T05:22:13.066Z,1027.63
2023-05-03T05:22:44.174Z,1027.63
2023-05-03T05:23:16.837Z,1027.63
2023-05-03T05:23:48.121Z,1027.63
2023-05-03T05:24:21.121Z,1027.84
2023-05-03T05:24:52.091Z,1027.84
2023-05-03T05:25:27.916Z,1027.84
2023-05-03T05:25:56.104Z,1027.94
2023-05-03T05:26:28.783Z,1027.94
2023-05-03T05:27:00.000Z,1027.84
2023-05-03T05:27:32.884Z,1027.84
2023-05-03T05:28:04.092Z,1027.84
2023-05-03T05:28:39.201Z,1027.84
2023-05-03T05:29:08.056Z,1027.73
2023-05-03T05:29:41.732Z,1027.73
2023-05-03T05:30:13.209Z,1027.63
2023-05-03T05:30:44.963Z,1027.63
2023-05-03T05:31:16.277Z,1028.04
2023-05-03T05:31:48.973Z,1028.04
2023-05-03T05:32:20.003Z,1028.04
2023-05-03T05:32:53.048Z,1028.04
2023-05-03T05:33:24.109Z,1027.84
2023-05-03T05:33:56.780Z,1027.84
2023-05-03T05:34:28.116Z,1027.84
2023-05-03T05:35:01.350Z,1027.84
2023-05-03T05:35:32.212Z,1027.84
2023-05-03T05:36:04.761Z,1027.84
2023-05-03T05:36:36.049Z,1027.84
2023-05-03T05:37:09.141Z,1027.73
2023-05-03T05:37:39.923Z,1027.73
2023-05-03T05:38:12.859Z,1027.84
2023-05-03T05:38:44.072Z,1027.84
2023-05-03T05:39:16.995Z,1027.94
2023-05-03T05:39:48.004Z,1027.94
2023-05-03T05:40:21.140Z,1027.84
2023-05-03T05:40:52.135Z,1027.84
2023-05-03T05:41:24.844Z,1027.94
2023-05-03T05:41:56.067Z,1028.04
2023-05-03T05:42:29.033Z,1028.04
2023-05-03T05:43:00.149Z,1027.84
2023-05-03T05:43:33.001Z,1027.84
2023-05-03T05:44:04.109Z,1027.94
2023-05-03T05:44:37.017Z,1027.94
2023-05-03T05:45:09.009Z,1027.94
2023-05-03T05:45:41.138Z,1027.94
2023-05-03T05:46:12.137Z,1028.04
2023-05-03T05:46:44.823Z,1028.04
2023-05-03T05:47:16.191Z,1027.94
2023-05-03T05:47:49.010Z,1027.94
2023-05-03T05:48:20.174Z,1027.84
2023-05-03T05:48:52.853Z,1027.84
2023-05-03T05:49:24.105Z,1027.73
2023-05-03T05:49:57.022Z,1027.84
2023-05-03T05:50:28.227Z,1027.84
2023-05-03T05:51:00.749Z,1027.94
2023-05-03T05:51:32.200Z,1027.94
2023-05-03T05:52:05.357Z,1027.94
2023-05-03T05:52:36.308Z,1027.94
2023-05-03T05:53:09.376Z,1027.94
2023-05-03T05:53:40.551Z,1027.94
2023-05-03T05:54:13.226Z,1028.14
2023-05-03T05:54:44.533Z,1028.14
2023-05-03T05:55:17.654Z,1027.84
2023-05-03T05:55:48.520Z,1027.84
2023-05-03T05:56:21.269Z,1027.94
2023-05-03T05:56:52.666Z,1027.94
2023-05-03T05:57:25.307Z,1027.94
2023-05-03T05:57:56.460Z,1028.04
2023-05-03T05:58:29.372Z,1028.04
2023-05-03T05:59:00.691Z,1028.04
2023-05-03T05:59:33.236Z,1028.04
2023-05-03T06:00:06.041Z,1028.14
2023-05-03T06:00:37.338Z,1028.14
2023-05-03T06:01:08.432Z,1027.94
2023-05-03T06:01:41.269Z,1027.94
2023-05-03T06:02:12.604Z,1027.94
2023-05-03T06:02:45.431Z,1027.94
2023-05-03T06:03:16.562Z,1028.14
2023-05-03T06:03:49.247Z,1028.14
2023-05-03T06:04:20.419Z,1027.94
2023-05-03T06:04:53.317Z,1027.94
2023-05-03T06:05:24.712Z,1027.94
2023-05-03T06:05:57.390Z,1027.84
2023-05-03T06:06:28.479Z,1027.84
2023-05-03T06:07:01.229Z,1028.14
2023-05-03T06:07:32.592Z,1028.14
2023-05-03T06:08:05.207Z,1028.04
2023-05-03T06:08:36.407Z,1028.04
2023-05-03T06:09:17.170Z,1028.14
2023-05-03T06:09:40.623Z,1028.14
2023-05-03T06:10:13.399Z,1028.04
2023-05-03T06:10:44.382Z,1028.04
2023-05-03T06:11:17.329Z,1028.14
2023-05-03T06:11:48.368Z,1028.14
2023-05-03T06:12:21.389Z,1028.04
2023-05-03T06:12:52.547Z,1028.04
2023-05-03T06:13:25.363Z,1028.04
2023-05-03T06:13:56.451Z,1028.04
2023-05-03T06:14:12.534Z,1028.04
2023-05-03T06:15:01.052Z,1028.04
2023-05-03T06:15:17.466Z,1027.94
2023-05-03T06:15:48.725Z,1027.94
2023-05-03T06:16:20.643Z,1027.94
2023-05-03T06:16:53.024Z,1027.94
2023-05-03T06:17:24.504Z,1028.04
2023-05-03T06:17:56.519Z,1028.14
2023-05-03T06:18:28.348Z,1028.14
2023-05-03T06:19:16.566Z,1028.04
2023-05-03T06:19:48.447Z,1028.04
2023-05-03T06:20:20.758Z,1028.14
2023-05-03T06:20:52.556Z,1028.14
2023-05-03T06:21:24.476Z,1028.14
2023-05-03T06:21:41.453Z,1028.14
2023-05-03T06:22:12.418Z,1028.14
2023-05-03T06:22:46.104Z,1028.14
2023-05-03T06:23:16.518Z,1027.84
2023-05-03T06:23:49.267Z,1027.84
2023-05-03T06:24:20.415Z,1027.94
2023-05-03T06:24:53.275Z,1027.94
2023-05-03T06:25:24.691Z,1027.94
2023-05-03T06:25:59.159Z,1027.94